sensor_id;sensor_type;location;lat;lon;timestamp;temperature;humidity
49441;DHT22;35317;51.978;6.296;2023-05-10T00:00:26;13.50;99.90
49441;DHT22;35317;51.978;6.296;2023-05-10T00:05:27;13.50;99.90
49441;DHT22;35317;51.978;6.296;2023-05-10T00:10:27;13.50;99.90
49441;DHT22;35317;51.978;6.296;2023-05-10T00:15:28;13.50;99.90
49441;DHT22;35317;51.978;6.296;2023-05-10T00:20:30;13.50;99.90
49441;DHT22;35317;51.978;6.296;2023-05-10T00:25:31;13.50;99.90
49441;DHT22;35317;51.978;6.296;2023-05-10T00:30:32;13.50;99.90
49441;DHT22;35317;51.978;6.296;2023-05-10T00:35:33;13.40;99.90
49441;DHT22;35317;51.978;6.296;2023-05-10T00:40:35;13.50;99.90
49441;DHT22;35317;51.978;6.296;2023-05-10T00:45:37;13.50;99.90
49441;DHT22;35317;51.978;6.296;2023-05-10T00:50:40;13.50;99.90
49441;DHT22;35317;51.978;6.296;2023-05-10T00:55:41;13.50;99.90
49441;DHT22;35317;51.978;6.296;2023-05-10T01:00:43;13.50;99.90
49441;DHT22;35317;51.978;6.296;2023-05-10T01:05:46;13.50;99.90
49441;DHT22;35317;51.978;6.296;2023-05-10T01:10:47;13.60;99.90
49441;DHT22;35317;51.978;6.296;2023-05-10T01:15:49;13.60;99.90
49441;DHT22;35317;51.978;6.296;2023-05-10T01:21:01;13.60;99.90
49441;DHT22;35317;51.978;6.296;2023-05-10T01:26:21;13.70;99.90
49441;DHT22;35317;51.978;6.296;2023-05-10T01:32:11;13.70;99.90
49441;DHT22;35317;51.978;6.296;2023-05-10T01:37:41;13.70;99.90
49441;DHT22;35317;51.978;6.296;2023-05-10T01:42:49;13.80;99.90
49441;DHT22;35317;51.978;6.296;2023-05-10T01:48:02;13.80;99.90
49441;DHT22;35317;51.978;6.296;2023-05-10T01:53:10;13.80;99.90
49441;DHT22;35317;51.978;6.296;2023-05-10T01:58:26;13.80;99.90
49441;DHT22;35317;51.978;6.296;2023-05-10T02:03:31;13.80;99.90
49441;DHT22;35317;51.978;6.296;2023-05-10T02:08:35;13.80;99.90
49441;DHT22;35317;51.978;6.296;2023-05-10T02:13:37;13.80;99.90
49441;DHT22;35317;51.978;6.296;2023-05-10T02:18:41;13.90;99.90
49441;DHT22;35317;51.978;6.296;2023-05-10T02:23:43;13.90;99.90
49441;DHT22;35317;51.978;6.296;2023-05-10T02:28:45;14.00;99.90
49441;DHT22;35317;51.978;6.296;2023-05-10T02:33:47;14.00;99.90
49441;DHT22;35317;51.978;6.296;2023-05-10T02:38:49;14.00;99.90
49441;DHT22;35317;51.978;6.296;2023-05-10T02:43:55;14.10;99.90
49441;DHT22;35317;51.978;6.296;2023-05-10T02:48:57;14.10;99.90
49441;DHT22;35317;51.978;6.296;2023-05-10T02:54:04;14.10;99.90
49441;DHT22;35317;51.978;6.296;2023-05-10T02:59:07;14.10;99.90
49441;DHT22;35317;51.978;6.296;2023-05-10T03:04:08;14.10;99.90
49441;DHT22;35317;51.978;6.296;2023-05-10T03:09:09;14.10;99.90
49441;DHT22;35317;51.978;6.296;2023-05-10T03:19:43;14.20;99.90
49441;DHT22;35317;51.978;6.296;2023-05-10T03:24:55;14.20;99.90
49441;DHT22;35317;51.978;6.296;2023-05-10T03:29:57;14.20;99.90
49441;DHT22;35317;51.978;6.296;2023-05-10T03:34:58;14.20;99.90
49441;DHT22;35317;51.978;6.296;2023-05-10T03:39:59;14.20;99.90
49441;DHT22;35317;51.978;6.296;2023-05-10T03:45:00;14.20;99.90
49441;DHT22;35317;51.978;6.296;2023-05-10T03:50:00;14.20;99.90
49441;DHT22;35317;51.978;6.296;2023-05-10T03:55:02;14.10;99.90
49441;DHT22;35317;51.978;6.296;2023-05-10T04:00:04;14.10;99.90
49441;DHT22;35317;51.978;6.296;2023-05-10T04:05:05;14.10;99.90
49441;DHT22;35317;51.978;6.296;2023-05-10T04:10:07;14.10;99.90
49441;DHT22;35317;51.978;6.296;2023-05-10T04:15:08;14.10;99.90
49441;DHT22;35317;51.978;6.296;2023-05-10T04:20:10;14.00;99.90
49441;DHT22;35317;51.978;6.296;2023-05-10T04:25:11;14.10;99.90
49441;DHT22;35317;51.978;6.296;2023-05-10T04:30:12;14.00;99.90
49441;DHT22;35317;51.978;6.296;2023-05-10T04:35:13;14.00;99.90
49441;DHT22;35317;51.978;6.296;2023-05-10T04:40:15;13.90;99.90
49441;DHT22;35317;51.978;6.296;2023-05-10T04:45:16;13.90;99.90
49441;DHT22;35317;51.978;6.296;2023-05-10T04:50:17;13.90;99.90
49441;DHT22;35317;51.978;6.296;2023-05-10T04:55:17;13.80;99.90
49441;DHT22;35317;51.978;6.296;2023-05-10T05:00:18;13.80;99.90
49441;DHT22;35317;51.978;6.296;2023-05-10T05:05:19;13.80;99.90
49441;DHT22;35317;51.978;6.296;2023-05-10T05:10:20;13.70;99.90
49441;DHT22;35317;51.978;6.296;2023-05-10T05:15:21;13.80;99.90
49441;DHT22;35317;51.978;6.296;2023-05-10T05:20:22;13.80;99.90
49441;DHT22;35317;51.978;6.296;2023-05-10T05:25:23;13.80;99.90
49441;DHT22;35317;51.978;6.296;2023-05-10T05:30:24;13.80;99.90
49441;DHT22;35317;51.978;6.296;2023-05-10T05:35:24;13.90;99.90
49441;DHT22;35317;51.978;6.296;2023-05-10T05:40:25;14.00;99.90
49441;DHT22;35317;51.978;6.296;2023-05-10T05:45:26;14.10;99.90
49441;DHT22;35317;51.978;6.296;2023-05-10T05:50:27;14.10;99.90
49441;DHT22;35317;51.978;6.296;2023-05-10T05:55:27;14.20;99.90
49441;DHT22;35317;51.978;6.296;2023-05-10T06:00:29;14.10;99.90
49441;DHT22;35317;51.978;6.296;2023-05-10T06:05:30;14.20;99.90
49441;DHT22;35317;51.978;6.296;2023-05-10T06:10:31;14.20;99.90
49441;DHT22;35317;51.978;6.296;2023-05-10T06:15:32;14.10;99.90
49441;DHT22;35317;51.978;6.296;2023-05-10T06:20:33;14.20;99.90
49441;DHT22;35317;51.978;6.296;2023-05-10T06:25:34;14.30;99.90
49441;DHT22;35317;51.978;6.296;2023-05-10T06:30:36;14.50;99.90
49441;DHT22;35317;51.978;6.296;2023-05-10T06:35:37;14.70;99.90
49441;DHT22;35317;51.978;6.296;2023-05-10T06:40:41;14.80;99.90
49441;DHT22;35317;51.978;6.296;2023-05-10T06:45:42;14.80;99.90
49441;DHT22;35317;51.978;6.296;2023-05-10T06:50:43;14.80;99.90
49441;DHT22;35317;51.978;6.296;2023-05-10T06:55:44;14.90;99.90
49441;DHT22;35317;51.978;6.296;2023-05-10T07:00:45;14.90;99.90
49441;DHT22;35317;51.978;6.296;2023-05-10T07:05:47;14.90;99.90
49441;DHT22;35317;51.978;6.296;2023-05-10T07:10:48;14.90;99.90
49441;DHT22;35317;51.978;6.296;2023-05-10T07:15:48;15.00;99.90
49441;DHT22;35317;51.978;6.296;2023-05-10T07:20:49;15.00;99.90
49441;DHT22;35317;51.978;6.296;2023-05-10T07:25:51;15.00;99.90
49441;DHT22;35317;51.978;6.296;2023-05-10T07:30:52;14.90;99.90
49441;DHT22;35317;51.978;6.296;2023-05-10T07:35:53;14.90;99.90
49441;DHT22;35317;51.978;6.296;2023-05-10T07:40:54;14.80;99.90
49441;DHT22;35317;51.978;6.296;2023-05-10T07:45:55;14.70;99.90
49441;DHT22;35317;51.978;6.296;2023-05-10T07:50:57;14.60;99.90
49441;DHT22;35317;51.978;6.296;2023-05-10T07:55:58;14.50;99.90
49441;DHT22;35317;51.978;6.296;2023-05-10T08:00:59;14.50;99.90
49441;DHT22;35317;51.978;6.296;2023-05-10T08:06:00;14.70;99.90
49441;DHT22;35317;51.978;6.296;2023-05-10T08:11:01;14.70;99.90
49441;DHT22;35317;51.978;6.296;2023-05-10T08:16:01;14.90;99.90
49441;DHT22;35317;51.978;6.296;2023-05-10T08:21:02;15.10;99.90
49441;DHT22;35317;51.978;6.296;2023-05-10T08:26:03;15.10;99.90
49441;DHT22;35317;51.978;6.296;2023-05-10T08:31:05;15.20;99.90
49441;DHT22;35317;51.978;6.296;2023-05-10T08:36:05;15.30;99.90
49441;DHT22;35317;51.978;6.296;2023-05-10T08:41:06;15.50;99.90
49441;DHT22;35317;51.978;6.296;2023-05-10T08:46:07;15.70;99.90
49441;DHT22;35317;51.978;6.296;2023-05-10T08:51:09;16.00;99.90
49441;DHT22;35317;51.978;6.296;2023-05-10T08:56:13;16.20;99.90
49441;DHT22;35317;51.978;6.296;2023-05-10T09:01:16;16.20;99.90
49441;DHT22;35317;51.978;6.296;2023-05-10T09:06:18;16.30;99.90
49441;DHT22;35317;51.978;6.296;2023-05-10T09:11:20;16.40;99.90
49441;DHT22;35317;51.978;6.296;2023-05-10T09:16:21;16.40;99.90
49441;DHT22;35317;51.978;6.296;2023-05-10T09:21:23;16.50;99.90
49441;DHT22;35317;51.978;6.296;2023-05-10T09:26:24;16.70;99.90
49441;DHT22;35317;51.978;6.296;2023-05-10T09:31:49;16.80;99.90
49441;DHT22;35317;51.978;6.296;2023-05-10T09:36:59;17.00;99.90
49441;DHT22;35317;51.978;6.296;2023-05-10T09:42:04;17.10;99.90
49441;DHT22;35317;51.978;6.296;2023-05-10T09:47:06;17.00;99.90
49441;DHT22;35317;51.978;6.296;2023-05-10T09:52:07;16.70;99.90
49441;DHT22;35317;51.978;6.296;2023-05-10T09:57:20;16.50;99.90
49441;DHT22;35317;51.978;6.296;2023-05-10T10:02:28;16.30;99.90
49441;DHT22;35317;51.978;6.296;2023-05-10T10:07:29;16.10;99.90
49441;DHT22;35317;51.978;6.296;2023-05-10T10:12:30;15.90;99.90
49441;DHT22;35317;51.978;6.296;2023-05-10T10:17:31;16.00;99.90
49441;DHT22;35317;51.978;6.296;2023-05-10T10:22:33;16.30;99.90
49441;DHT22;35317;51.978;6.296;2023-05-10T10:38:03;17.30;99.90
49441;DHT22;35317;51.978;6.296;2023-05-10T10:43:23;17.50;99.90
49441;DHT22;35317;51.978;6.296;2023-05-10T10:48:26;17.70;99.90
49441;DHT22;35317;51.978;6.296;2023-05-10T10:53:27;17.70;99.90
49441;DHT22;35317;51.978;6.296;2023-05-10T10:58:30;17.80;99.90
49441;DHT22;35317;51.978;6.296;2023-05-10T11:03:34;18.00;99.90
49441;DHT22;35317;51.978;6.296;2023-05-10T11:08:42;18.00;99.90
49441;DHT22;35317;51.978;6.296;2023-05-10T11:13:46;18.00;99.90
49441;DHT22;35317;51.978;6.296;2023-05-10T11:24:13;18.30;98.50
49441;DHT22;35317;51.978;6.296;2023-05-10T11:29:16;18.40;98.10
49441;DHT22;35317;51.978;6.296;2023-05-10T11:39:27;18.60;97.00
49441;DHT22;35317;51.978;6.296;2023-05-10T11:44:32;18.80;96.80
49441;DHT22;35317;51.978;6.296;2023-05-10T11:49:33;18.90;96.00
49441;DHT22;35317;51.978;6.296;2023-05-10T11:54:34;19.00;95.90
49441;DHT22;35317;51.978;6.296;2023-05-10T11:59:36;19.20;95.50
49441;DHT22;35317;51.978;6.296;2023-05-10T12:04:38;19.40;94.70
49441;DHT22;35317;51.978;6.296;2023-05-10T12:10:05;19.50;94.00
49441;DHT22;35317;51.978;6.296;2023-05-10T12:15:20;19.70;94.20
49441;DHT22;35317;51.978;6.296;2023-05-10T12:20:23;20.00;93.60
49441;DHT22;35317;51.978;6.296;2023-05-10T12:25:51;20.10;92.80
49441;DHT22;35317;51.978;6.296;2023-05-10T12:30:54;19.90;92.30
49441;DHT22;35317;51.978;6.296;2023-05-10T12:35:55;19.80;92.20
49441;DHT22;35317;51.978;6.296;2023-05-10T12:41:04;20.00;91.90
49441;DHT22;35317;51.978;6.296;2023-05-10T12:46:14;20.10;91.70
49441;DHT22;35317;51.978;6.296;2023-05-10T12:51:16;20.20;91.00
49441;DHT22;35317;51.978;6.296;2023-05-10T12:56:19;20.10;91.00
49441;DHT22;35317;51.978;6.296;2023-05-10T13:01:20;20.10;91.10
49441;DHT22;35317;51.978;6.296;2023-05-10T13:06:21;20.20;91.10
49441;DHT22;35317;51.978;6.296;2023-05-10T13:11:22;20.20;91.00
49441;DHT22;35317;51.978;6.296;2023-05-10T13:16:23;20.20;90.90
49441;DHT22;35317;51.978;6.296;2023-05-10T13:21:24;20.20;91.00
49441;DHT22;35317;51.978;6.296;2023-05-10T13:26:25;20.50;91.10
49441;DHT22;35317;51.978;6.296;2023-05-10T13:31:26;20.80;90.40
49441;DHT22;35317;51.978;6.296;2023-05-10T13:36:27;20.70;90.40
49441;DHT22;35317;51.978;6.296;2023-05-10T13:41:28;20.70;90.40
49441;DHT22;35317;51.978;6.296;2023-05-10T13:46:29;20.70;90.40
49441;DHT22;35317;51.978;6.296;2023-05-10T13:51:31;20.60;90.20
49441;DHT22;35317;51.978;6.296;2023-05-10T13:56:32;20.40;90.10
49441;DHT22;35317;51.978;6.296;2023-05-10T14:01:33;20.20;90.10
49441;DHT22;35317;51.978;6.296;2023-05-10T14:06:34;20.20;90.20
49441;DHT22;35317;51.978;6.296;2023-05-10T14:11:34;20.00;90.00
49441;DHT22;35317;51.978;6.296;2023-05-10T14:16:35;20.00;90.10
49441;DHT22;35317;51.978;6.296;2023-05-10T14:21:36;20.00;90.00
49441;DHT22;35317;51.978;6.296;2023-05-10T14:26:37;19.90;90.20
49441;DHT22;35317;51.978;6.296;2023-05-10T14:31:39;19.90;90.10
49441;DHT22;35317;51.978;6.296;2023-05-10T14:36:40;19.90;90.10
49441;DHT22;35317;51.978;6.296;2023-05-10T14:41:41;20.00;90.00
49441;DHT22;35317;51.978;6.296;2023-05-10T14:46:43;19.90;89.80
49441;DHT22;35317;51.978;6.296;2023-05-10T14:51:44;19.80;90.00
49441;DHT22;35317;51.978;6.296;2023-05-10T14:56:45;19.70;90.10
49441;DHT22;35317;51.978;6.296;2023-05-10T15:01:47;19.60;90.30
49441;DHT22;35317;51.978;6.296;2023-05-10T15:06:47;19.40;90.40
49441;DHT22;35317;51.978;6.296;2023-05-10T15:11:48;19.30;90.70
49441;DHT22;35317;51.978;6.296;2023-05-10T15:16:49;19.00;91.20
49441;DHT22;35317;51.978;6.296;2023-05-10T15:32:31;18.70;92.00
49441;DHT22;35317;51.978;6.296;2023-05-10T15:37:32;17.80;92.70
49441;DHT22;35317;51.978;6.296;2023-05-10T15:47:54;17.60;93.60
49441;DHT22;35317;51.978;6.296;2023-05-10T15:52:55;17.50;94.20
49441;DHT22;35317;51.978;6.296;2023-05-10T15:57:55;17.40;94.30
49441;DHT22;35317;51.978;6.296;2023-05-10T16:02:56;17.40;94.70
49441;DHT22;35317;51.978;6.296;2023-05-10T16:07:57;17.20;94.80
49441;DHT22;35317;51.978;6.296;2023-05-10T16:12:58;17.10;95.00
49441;DHT22;35317;51.978;6.296;2023-05-10T16:17:59;17.00;95.20
49441;DHT22;35317;51.978;6.296;2023-05-10T16:23:03;17.00;95.30
49441;DHT22;35317;51.978;6.296;2023-05-10T16:28:05;16.90;95.70
49441;DHT22;35317;51.978;6.296;2023-05-10T16:33:05;16.90;95.90
49441;DHT22;35317;51.978;6.296;2023-05-10T16:38:06;16.80;96.30
49441;DHT22;35317;51.978;6.296;2023-05-10T16:43:07;16.90;96.70
49441;DHT22;35317;51.978;6.296;2023-05-10T16:48:08;17.10;97.00
49441;DHT22;35317;51.978;6.296;2023-05-10T16:53:09;17.30;96.90
49441;DHT22;35317;51.978;6.296;2023-05-10T16:58:11;17.40;97.10
49441;DHT22;35317;51.978;6.296;2023-05-10T17:03:12;17.60;97.10
49441;DHT22;35317;51.978;6.296;2023-05-10T17:08:12;17.70;97.10
49441;DHT22;35317;51.978;6.296;2023-05-10T17:13:13;17.70;97.10
49441;DHT22;35317;51.978;6.296;2023-05-10T17:18:16;17.80;97.20
49441;DHT22;35317;51.978;6.296;2023-05-10T17:23:17;17.80;97.20
49441;DHT22;35317;51.978;6.296;2023-05-10T17:28:18;17.80;97.10
49441;DHT22;35317;51.978;6.296;2023-05-10T17:33:19;17.80;97.10
49441;DHT22;35317;51.978;6.296;2023-05-10T17:38:19;17.60;97.10
49441;DHT22;35317;51.978;6.296;2023-05-10T17:43:20;17.60;97.10
49441;DHT22;35317;51.978;6.296;2023-05-10T17:48:21;17.40;97.20
49441;DHT22;35317;51.978;6.296;2023-05-10T17:53:23;17.30;97.40
49441;DHT22;35317;51.978;6.296;2023-05-10T17:58:24;17.20;97.50
49441;DHT22;35317;51.978;6.296;2023-05-10T18:03:25;17.10;97.60
49441;DHT22;35317;51.978;6.296;2023-05-10T18:08:26;17.10;97.70
49441;DHT22;35317;51.978;6.296;2023-05-10T18:13:28;17.00;97.90
49441;DHT22;35317;51.978;6.296;2023-05-10T18:18:28;16.90;98.00
49441;DHT22;35317;51.978;6.296;2023-05-10T18:23:29;16.90;98.10
49441;DHT22;35317;51.978;6.296;2023-05-10T18:28:30;16.70;98.30
49441;DHT22;35317;51.978;6.296;2023-05-10T18:33:31;16.70;98.50
49441;DHT22;35317;51.978;6.296;2023-05-10T18:38:32;16.70;98.60
49441;DHT22;35317;51.978;6.296;2023-05-10T18:43:33;16.60;98.60
49441;DHT22;35317;51.978;6.296;2023-05-10T18:48:33;16.50;98.60
49441;DHT22;35317;51.978;6.296;2023-05-10T18:53:34;16.40;98.80
49441;DHT22;35317;51.978;6.296;2023-05-10T18:58:35;16.30;98.90
49441;DHT22;35317;51.978;6.296;2023-05-10T19:03:36;16.20;99.00
49441;DHT22;35317;51.978;6.296;2023-05-10T19:08:37;16.10;99.10
49441;DHT22;35317;51.978;6.296;2023-05-10T19:13:37;16.10;99.20
49441;DHT22;35317;51.978;6.296;2023-05-10T19:18:38;16.00;99.30
49441;DHT22;35317;51.978;6.296;2023-05-10T19:23:39;16.00;99.40
49441;DHT22;35317;51.978;6.296;2023-05-10T19:28:41;15.90;99.60
49441;DHT22;35317;51.978;6.296;2023-05-10T19:33:42;15.90;99.80
49441;DHT22;35317;51.978;6.296;2023-05-10T19:38:42;15.80;99.80
49441;DHT22;35317;51.978;6.296;2023-05-10T19:43:43;15.80;99.90
49441;DHT22;35317;51.978;6.296;2023-05-10T19:48:44;15.70;99.90
49441;DHT22;35317;51.978;6.296;2023-05-10T19:53:45;15.60;99.90
49441;DHT22;35317;51.978;6.296;2023-05-10T19:58:45;15.60;99.90
49441;DHT22;35317;51.978;6.296;2023-05-10T20:03:46;15.50;99.90
49441;DHT22;35317;51.978;6.296;2023-05-10T20:08:47;15.40;99.90
49441;DHT22;35317;51.978;6.296;2023-05-10T20:13:48;15.30;99.90
49441;DHT22;35317;51.978;6.296;2023-05-10T20:18:49;15.20;99.90
49441;DHT22;35317;51.978;6.296;2023-05-10T20:23:49;15.20;99.90
49441;DHT22;35317;51.978;6.296;2023-05-10T20:28:50;15.20;99.90
49441;DHT22;35317;51.978;6.296;2023-05-10T20:33:51;15.10;99.90
49441;DHT22;35317;51.978;6.296;2023-05-10T20:38:52;15.10;99.90
49441;DHT22;35317;51.978;6.296;2023-05-10T20:43:53;15.00;99.90
49441;DHT22;35317;51.978;6.296;2023-05-10T20:48:54;15.00;99.90
49441;DHT22;35317;51.978;6.296;2023-05-10T20:53:55;15.00;99.90
49441;DHT22;35317;51.978;6.296;2023-05-10T20:58:56;15.00;99.90
49441;DHT22;35317;51.978;6.296;2023-05-10T21:03:57;15.00;99.90
49441;DHT22;35317;51.978;6.296;2023-05-10T21:08:58;14.90;99.90
49441;DHT22;35317;51.978;6.296;2023-05-10T21:13:59;14.90;99.90
49441;DHT22;35317;51.978;6.296;2023-05-10T21:18:59;14.80;99.90
49441;DHT22;35317;51.978;6.296;2023-05-10T21:24:01;14.80;99.90
49441;DHT22;35317;51.978;6.296;2023-05-10T21:29:01;14.80;99.90
49441;DHT22;35317;51.978;6.296;2023-05-10T21:34:04;14.70;99.90
49441;DHT22;35317;51.978;6.296;2023-05-10T21:39:05;14.70;99.90
49441;DHT22;35317;51.978;6.296;2023-05-10T21:44:05;14.60;99.90
49441;DHT22;35317;51.978;6.296;2023-05-10T21:49:06;14.60;99.90
49441;DHT22;35317;51.978;6.296;2023-05-10T21:54:07;14.60;99.90
49441;DHT22;35317;51.978;6.296;2023-05-10T21:59:08;14.60;99.90
49441;DHT22;35317;51.978;6.296;2023-05-10T22:04:09;14.50;99.90
49441;DHT22;35317;51.978;6.296;2023-05-10T22:09:09;14.50;99.90
49441;DHT22;35317;51.978;6.296;2023-05-10T22:14:10;14.50;99.90
49441;DHT22;35317;51.978;6.296;2023-05-10T22:19:11;14.60;99.90
49441;DHT22;35317;51.978;6.296;2023-05-10T22:24:12;14.60;99.90
49441;DHT22;35317;51.978;6.296;2023-05-10T22:29:12;14.60;99.90
49441;DHT22;35317;51.978;6.296;2023-05-10T22:34:13;14.60;99.90
49441;DHT22;35317;51.978;6.296;2023-05-10T22:39:15;14.60;99.90
49441;DHT22;35317;51.978;6.296;2023-05-10T22:44:16;14.70;99.90
49441;DHT22;35317;51.978;6.296;2023-05-10T22:49:17;14.70;99.90
49441;DHT22;35317;51.978;6.296;2023-05-10T22:54:17;14.70;99.90
49441;DHT22;35317;51.978;6.296;2023-05-10T22:59:19;14.70;99.90
49441;DHT22;35317;51.978;6.296;2023-05-10T23:04:20;14.70;99.90
49441;DHT22;35317;51.978;6.296;2023-05-10T23:09:21;14.70;99.90
49441;DHT22;35317;51.978;6.296;2023-05-10T23:14:21;14.70;99.90
49441;DHT22;35317;51.978;6.296;2023-05-10T23:19:22;14.70;99.90
49441;DHT22;35317;51.978;6.296;2023-05-10T23:24:24;14.70;99.90
49441;DHT22;35317;51.978;6.296;2023-05-10T23:29:25;14.70;99.90
49441;DHT22;35317;51.978;6.296;2023-05-10T23:34:26;14.70;99.90
49441;DHT22;35317;51.978;6.296;2023-05-10T23:39:27;14.70;99.90
49441;DHT22;35317;51.978;6.296;2023-05-10T23:44:27;14.70;99.90
49441;DHT22;35317;51.978;6.296;2023-05-10T23:49:28;14.60;99.90
49441;DHT22;35317;51.978;6.296;2023-05-10T23:54:29;14.60;99.90
49441;DHT22;35317;51.978;6.296;2023-05-10T23:59:30;14.60;99.90
